Time;durP1;ratioP1;P1;durP2;ratioP2;P2;SDS_P1;SDS_P2;PMS_P1;PMS_P2;Temp;Humidity;BMP_temperature;BMP_pressure;BME280_temperature;BME280_humidity;BME280_pressure;Samples;Min_cycle;Max_cycle;Signal;HPM_P1;HPM_P2
2023/02/28 00:02:17;;;;;;;0.00;0.00;;;;;;;1.21;85.97;102014.34;6236700;22;20051;-76
2023/02/28 00:04:46;;;;;;;0.00;0.00;;;;;;;1.16;85.96;102011.28;6238748;22;20003;-75
2023/02/28 00:07:11;;;;;;;0.00;0.00;;;;;;;1.06;86.52;101994.41;6262989;22;19991;-75
2023/02/28 00:09:38;;;;;;;0.00;0.00;;;;;;;1.13;86.55;102006.22;6262653;22;20018;-75
2023/02/28 00:12:09;;;;;;;0.00;0.00;;;;;;;1.11;86.25;102021.72;6287549;22;20006;-75
2023/02/28 00:14:35;;;;;;;0.00;0.00;;;;;;;1.07;85.88;102012.28;6240336;22;20059;-76
2023/02/28 00:17:01;;;;;;;0.00;0.00;;;;;;;1.01;86.76;102015.63;6261634;22;20095;-76
2023/02/28 00:19:26;;;;;;;0.00;0.00;;;;;;;0.99;86.37;102006.84;6261243;22;20059;-75
2023/02/28 00:21:52;;;;;;;0.00;0.00;;;;;;;0.98;86.25;102007.84;6289729;22;20018;-77
2023/02/28 00:24:17;;;;;;;0.00;0.00;;;;;;;0.95;86.42;102021.66;6236229;22;20013;-76
2023/02/28 00:26:43;;;;;;;0.00;0.00;;;;;;;0.93;86.99;102020.97;6264924;22;20011;-75
2023/02/28 00:29:08;;;;;;;0.10;0.10;;;;;;;0.96;86.14;102017.94;6286077;22;20010;-75
2023/02/28 00:31:34;;;;;;;0.00;0.00;;;;;;;1.00;86.51;102024.72;6237593;22;20016;-75
2023/02/28 00:33:59;;;;;;;0.00;0.00;;;;;;;0.95;85.95;102019.81;6259424;22;20059;-75
2023/02/28 00:36:24;;;;;;;0.00;0.00;;;;;;;0.96;86.59;102023.34;6235339;22;20387;-77
2023/02/28 00:38:50;;;;;;;0.00;0.00;;;;;;;0.85;86.57;102019.94;6219725;22;20016;-76
2023/02/28 00:41:15;;;;;;;0.00;0.00;;;;;;;0.80;86.48;102022.25;6205834;22;20012;-75
2023/02/28 00:43:41;;;;;;;0.10;0.10;;;;;;;0.78;86.63;102026.16;6232151;22;20039;-74
2023/02/28 00:46:07;;;;;;;0.00;0.00;;;;;;;0.59;85.70;102011.09;6256042;22;20015;-75
2023/02/28 00:48:33;;;;;;;0.00;0.00;;;;;;;0.68;85.66;102037.03;6232491;22;20008;-75
2023/02/28 00:50:58;;;;;;;0.00;0.00;;;;;;;0.52;85.81;102014.41;6255822;22;20090;-76
2023/02/28 00:53:24;;;;;;;0.05;0.05;;;;;;;0.58;86.35;102025.53;6253972;22;20014;-76
2023/02/28 00:55:50;;;;;;;0.00;0.00;;;;;;;0.51;85.92;102031.56;6255707;22;20038;-76
2023/02/28 00:58:16;;;;;;;0.00;0.00;;;;;;;0.43;85.99;102023.44;6256195;22;20037;-76
2023/02/28 01:00:41;;;;;;;0.10;0.10;;;;;;;0.36;86.50;102016.19;6229664;22;20012;-77
2023/02/28 01:03:07;;;;;;;0.00;0.00;;;;;;;0.46;86.50;102031.19;6281014;22;20307;-75
2023/02/28 01:05:32;;;;;;;0.00;0.00;;;;;;;0.51;86.64;102034.25;6200742;22;20042;-77
2023/02/28 01:07:58;;;;;;;0.00;0.00;;;;;;;0.52;86.36;102025.16;6227628;22;20010;-76
2023/02/28 01:10:24;;;;;;;0.00;0.00;;;;;;;0.49;86.62;102021.97;6252078;22;20031;-77
2023/02/28 01:12:50;;;;;;;0.10;0.10;;;;;;;0.50;86.56;102035.25;6231240;22;20000;-76
2023/02/28 01:15:15;;;;;;;0.00;0.00;;;;;;;0.51;86.68;102036.09;6204349;22;20015;-76
2023/02/28 01:17:41;;;;;;;0.00;0.00;;;;;;;0.48;86.96;102033.72;6229575;22;20081;-76
2023/02/28 01:20:09;;;;;;;0.10;0.10;;;;;;;0.45;86.97;102040.28;6229334;22;20058;-76
2023/02/28 01:22:35;;;;;;;0.00;0.00;;;;;;;0.39;87.42;102022.06;6253202;22;20007;-75
2023/02/28 01:25:00;;;;;;;0.00;0.00;;;;;;;0.36;87.21;102025.09;6253633;22;20026;-76
2023/02/28 01:27:26;;;;;;;0.10;0.10;;;;;;;0.37;87.02;102034.84;6224007;22;20039;-74
2023/02/28 01:29:54;;;;;;;0.00;0.00;;;;;;;0.26;87.61;102029.72;6201814;22;20008;-75
2023/02/28 01:32:19;;;;;;;0.00;0.00;;;;;;;0.29;87.69;102037.47;6229410;22;20007;-76
2023/02/28 01:34:45;;;;;;;0.00;0.00;;;;;;;0.25;87.68;102038.78;6256572;22;19999;-77
2023/02/28 01:37:10;;;;;;;0.00;0.00;;;;;;;0.28;88.51;102046.59;6231866;22;20042;-77
2023/02/28 01:39:36;;;;;;;0.00;0.00;;;;;;;0.15;88.33;102023.59;6258859;22;20341;-77
2023/02/28 01:42:02;;;;;;;0.00;0.00;;;;;;;0.21;88.37;102034.75;6238655;22;20002;-77
2023/02/28 01:45:01;;;;;;;0.00;0.00;;;;;;;0.16;88.02;102038.75;6258703;22;20012;-78
2023/02/28 01:47:35;;;;;;;0.00;0.00;;;;;;;0.01;88.22;102013.41;6288788;22;20012;-78
2023/02/28 01:50:04;;;;;;;0.10;0.10;;;;;;;0.08;89.44;102032.47;6294415;22;20076;-78
2023/02/28 01:52:33;;;;;;;0.00;0.00;;;;;;;0.04;88.82;102023.84;6314785;22;20022;-81
2023/02/28 01:55:01;;;;;;;0.00;0.00;;;;;;;0.10;88.62;102039.41;6285699;22;20011;-80
2023/02/28 01:57:37;;;;;;;0.00;0.00;;;;;;;0.12;88.72;102041.94;6285369;22;20064;-76
2023/02/28 02:00:09;;;;;;;0.00;0.00;;;;;;;0.06;89.30;102032.63;6309395;22;20398;-76
2023/02/28 02:02:37;;;;;;;0.00;0.00;;;;;;;-0.03;89.12;102025.50;6311560;22;20003;-76
2023/02/28 02:05:08;;;;;;;0.00;0.00;;;;;;;-0.13;89.41;102027.44;6312897;22;19991;-75
2023/02/28 02:07:39;;;;;;;0.00;0.00;;;;;;;-0.28;89.38;102009.16;6285872;22;20015;-76
2023/02/28 02:10:21;;;;;;;0.10;0.10;;;;;;;-0.19;88.97;102034.28;6284064;22;20014;-76
2023/02/28 02:12:56;;;;;;;0.00;0.00;;;;;;;-0.23;90.08;102031.06;6284322;22;19991;-75
2023/02/28 02:15:33;;;;;;;0.00;0.00;;;;;;;-0.22;89.91;102024.69;6281483;22;20003;-74
2023/02/28 02:18:26;;;;;;;0.00;0.00;;;;;;;-0.21;89.50;102026.34;6308888;22;20022;-75
2023/02/28 02:21:27;;;;;;;0.10;0.10;;;;;;;-0.22;90.50;102027.38;6268979;22;20003;-76
2023/02/28 02:24:01;;;;;;;0.10;0.10;;;;;;;-0.27;89.49;102027.00;6310651;22;20006;-78
2023/02/28 02:26:58;;;;;;;0.00;0.00;;;;;;;-0.36;90.70;102027.94;6287227;22;20007;-77
2023/02/28 02:29:51;;;;;;;0.00;0.00;;;;;;;-0.41;89.83;102025.72;6311304;22;20022;-77
2023/02/28 02:32:44;;;;;;;0.00;0.00;;;;;;;-0.43;89.96;102026.84;6283672;22;20003;-78
2023/02/28 02:35:49;;;;;;;0.10;0.10;;;;;;;-0.47;90.04;102026.28;6284659;22;20003;-76
2023/02/28 02:38:29;;;;;;;0.00;0.00;;;;;;;-0.49;89.94;102016.72;6267052;22;20019;-78
2023/02/28 02:41:08;;;;;;;0.00;0.00;;;;;;;-0.54;90.29;102018.03;6286558;22;20007;-75
2023/02/28 02:43:46;;;;;;;0.00;0.00;;;;;;;-0.57;90.82;102018.34;6284437;22;20018;-74
2023/02/28 02:46:21;;;;;;;0.00;0.00;;;;;;;-0.54;91.42;102019.84;6282275;22;19991;-75
2023/02/28 02:48:48;;;;;;;0.00;0.00;;;;;;;-0.45;91.09;102018.06;6308898;22;20059;-75
2023/02/28 02:51:17;;;;;;;0.00;0.00;;;;;;;-0.43;91.23;102016.09;6258971;22;20003;-74
2023/02/28 02:54:00;;;;;;;0.00;0.00;;;;;;;-0.45;91.64;102015.38;6280236;22;20030;-75
2023/02/28 02:56:29;;;;;;;0.00;0.00;;;;;;;-0.49;91.32;102016.72;6310060;22;20094;-74
2023/02/28 02:58:59;;;;;;;0.00;0.00;;;;;;;-0.48;91.47;102019.25;6278890;22;20025;-75
2023/02/28 03:01:27;;;;;;;0.00;0.00;;;;;;;-0.51;92.29;102019.56;6310249;22;20014;-75
2023/02/28 03:04:16;;;;;;;0.00;0.00;;;;;;;-0.54;92.42;102014.47;6305589;22;20119;-75
2023/02/28 03:06:41;;;;;;;0.00;0.00;;;;;;;-0.51;92.17;102022.25;6310265;22;19995;-75
2023/02/28 03:09:10;;;;;;;0.10;0.10;;;;;;;-0.57;91.94;102012.97;6230571;22;20069;-76
2023/02/28 03:11:37;;;;;;;0.00;0.00;;;;;;;-0.52;92.60;102017.88;6259840;22;20011;-75
2023/02/28 03:14:39;;;;;;;0.00;0.00;;;;;;;-0.47;92.12;102025.47;6281092;22;20022;-74
2023/02/28 03:17:16;;;;;;;0.00;0.00;;;;;;;-0.47;93.04;102025.47;6282273;22;20436;-76
2023/02/28 03:19:52;;;;;;;0.00;0.00;;;;;;;-0.61;92.74;102022.31;6312396;22;20011;-75
2023/02/28 03:22:44;;;;;;;0.10;0.10;;;;;;;-0.62;93.22;102028.69;6283816;22;20011;-75
2023/02/28 03:25:22;;;;;;;0.00;0.00;;;;;;;-0.68;92.15;102029.31;6279936;22;20081;-76
2023/02/28 03:28:01;;;;;;;0.10;0.10;;;;;;;-0.70;92.26;102025.94;6281890;22;20062;-76
2023/02/28 03:30:54;;;;;;;0.00;0.00;;;;;;;-0.69;93.23;102027.59;6281882;22;20064;-75
2023/02/28 03:33:38;;;;;;;0.00;0.00;;;;;;;-0.70;92.80;102023.25;6311282;22;20007;-75
2023/02/28 03:36:09;;;;;;;0.00;0.00;;;;;;;-0.66;93.49;102027.28;6309319;22;20030;-75
2023/02/28 03:38:52;;;;;;;0.00;0.00;;;;;;;-0.61;93.11;102025.00;6284170;22;20484;-76
2023/02/28 03:41:27;;;;;;;0.00;0.00;;;;;;;-0.66;93.19;102024.59;6306889;22;20060;-74
2023/02/28 03:44:05;;;;;;;0.10;0.10;;;;;;;-0.61;93.77;102025.00;6283448;22;20007;-74
2023/02/28 03:46:37;;;;;;;0.10;0.10;;;;;;;-0.65;93.97;102023.63;6308225;22;20769;-73
2023/02/28 03:49:27;;;;;;;0.10;0.10;;;;;;;-0.64;94.15;102033.38;6284128;22;20007;-74
2023/02/28 03:51:56;;;;;;;0.00;0.00;;;;;;;-0.64;94.81;102025.31;6272355;22;20007;-75
2023/02/28 03:54:37;;;;;;;0.00;0.00;;;;;;;-0.67;94.11;102022.94;6287500;22;20093;-74
2023/02/28 03:57:15;;;;;;;0.00;0.00;;;;;;;-0.66;94.79;102027.28;6284983;22;19991;-74
2023/02/28 03:59:50;;;;;;;0.00;0.00;;;;;;;-0.66;94.55;102031.84;6313366;22;20005;-73
2023/02/28 04:02:16;;;;;;;0.00;0.00;;;;;;;-0.72;94.82;102022.53;6311037;22;19999;-73
2023/02/28 04:04:44;;;;;;;0.00;0.00;;;;;;;-0.74;95.18;102019.16;6317717;22;20029;-74
2023/02/28 04:07:11;;;;;;;0.00;0.00;;;;;;;-0.74;94.84;102025.38;6260118;22;20337;-74
2023/02/28 04:09:37;;;;;;;0.00;0.00;;;;;;;-0.76;95.83;102015.78;6285845;22;20084;-73
2023/02/28 04:12:03;;;;;;;0.00;0.00;;;;;;;-0.76;96.05;102015.78;6281713;22;20364;-74
2023/02/28 04:14:28;;;;;;;0.00;0.00;;;;;;;-0.84;95.83;102007.66;6284165;22;20030;-75
2023/02/28 04:16:54;;;;;;;0.00;0.00;;;;;;;-0.83;95.75;102006.63;6283150;22;20011;-74
2023/02/28 04:19:20;;;;;;;0.00;0.00;;;;;;;-0.78;95.60;101998.97;6231879;22;20106;-76
2023/02/28 04:21:48;;;;;;;0.00;0.00;;;;;;;-0.72;95.99;102019.84;6258414;22;20082;-76
2023/02/28 04:24:17;;;;;;;0.10;0.10;;;;;;;-0.71;95.95;102018.84;6306463;22;20007;-76
2023/02/28 04:26:45;;;;;;;0.00;0.00;;;;;;;-0.70;96.41;102009.81;6310895;22;20010;-75
2023/02/28 04:29:13;;;;;;;0.00;0.00;;;;;;;-0.63;95.80;102018.91;6307842;22;20003;-75
2023/02/28 04:31:39;;;;;;;0.00;0.00;;;;;;;-0.65;96.52;102020.09;6310075;22;19999;-76
2023/02/28 04:34:05;;;;;;;0.10;0.10;;;;;;;-0.69;96.64;102016.84;6281168;22;20014;-75
2023/02/28 04:36:30;;;;;;;0.10;0.10;;;;;;;-0.65;96.38;102017.41;6258011;22;20011;-74
2023/02/28 04:38:56;;;;;;;0.00;0.00;;;;;;;-0.62;96.62;102027.84;6283872;22;20019;-75
2023/02/28 04:41:22;;;;;;;0.00;0.00;;;;;;;-0.65;97.18;102029.00;6257057;22;20090;-74
2023/02/28 04:43:48;;;;;;;0.00;0.00;;;;;;;-0.58;96.92;102030.06;6309142;22;20037;-75
2023/02/28 04:46:14;;;;;;;0.00;0.00;;;;;;;-0.59;96.50;102031.06;6230258;22;20461;-76
2023/02/28 04:48:40;;;;;;;0.00;0.00;;;;;;;-0.60;96.90;102034.78;6257647;22;19996;-75
2023/02/28 04:51:10;;;;;;;0.10;0.10;;;;;;;-0.69;96.94;102027.59;6280722;22;20022;-76
2023/02/28 04:53:38;;;;;;;0.10;0.10;;;;;;;-0.69;97.18;102027.59;6285742;22;20007;-74
2023/02/28 04:56:04;;;;;;;0.00;0.00;;;;;;;-0.73;96.58;102023.53;6281072;22;20014;-75
2023/02/28 04:58:30;;;;;;;0.00;0.00;;;;;;;-0.65;97.20;102039.75;6310653;22;19999;-75
2023/02/28 05:01:12;;;;;;;0.08;0.08;;;;;;;-0.69;96.96;102022.22;6257451;22;20003;-75
2023/02/28 05:03:40;;;;;;;0.00;0.00;;;;;;;-0.62;97.20;102039.44;6311011;22;20048;-75
2023/02/28 05:06:07;;;;;;;0.00;0.00;;;;;;;-0.59;97.23;102038.28;6257891;22;19983;-75
2023/02/28 05:08:33;;;;;;;0.00;0.00;;;;;;;-0.62;97.84;102039.44;6283132;22;20087;-76
2023/02/28 05:11:00;;;;;;;0.10;0.10;;;;;;;-0.59;97.74;102044.50;6259900;22;19991;-75
2023/02/28 05:13:26;;;;;;;0.00;0.00;;;;;;;-0.56;97.74;102044.19;6281087;22;20015;-74
2023/02/28 05:15:53;;;;;;;0.00;0.00;;;;;;;-0.65;97.75;102033.53;6282014;22;20007;-75
2023/02/28 05:18:19;;;;;;;0.00;0.00;;;;;;;-0.59;97.88;102041.81;6255126;22;20022;-75
2023/02/28 05:20:44;;;;;;;0.00;0.00;;;;;;;-0.61;97.86;102051.03;6232934;22;20003;-75
2023/02/28 05:23:15;;;;;;;0.10;0.10;;;;;;;-0.62;98.29;102052.88;6282204;22;19999;-74
2023/02/28 05:25:40;;;;;;;0.00;0.00;;;;;;;-0.63;98.23;102061.09;6312100;22;20014;-75
2023/02/28 05:28:06;;;;;;;0.05;0.05;;;;;;;-0.69;98.59;102067.06;6290718;22;20345;-75
2023/02/28 05:30:32;;;;;;;0.00;0.00;;;;;;;-0.79;98.14;102067.13;6287551;22;20007;-75
2023/02/28 05:32:58;;;;;;;0.10;0.10;;;;;;;-0.90;98.92;102071.69;6287894;22;20059;-75
2023/02/28 05:35:25;;;;;;;0.00;0.00;;;;;;;-1.01;98.06;102068.38;6283443;22;19999;-76
2023/02/28 05:37:50;;;;;;;0.10;0.10;;;;;;;-1.23;98.34;102046.28;6285073;22;20014;-76
2023/02/28 05:40:16;;;;;;;0.10;0.10;;;;;;;-1.18;99.00;102053.91;6310251;22;20009;-75
2023/02/28 05:42:42;;;;;;;0.10;0.10;;;;;;;-1.07;98.42;102067.13;6310755;22;20058;-75
2023/02/28 05:45:09;;;;;;;0.00;0.00;;;;;;;-1.01;98.09;102068.38;6259096;22;20844;-80
2023/02/28 05:47:35;;;;;;;0.00;0.00;;;;;;;-1.00;98.83;102072.75;6305854;22;20017;-75
2023/02/28 05:50:01;;;;;;;0.00;0.00;;;;;;;-0.96;99.30;102074.16;6233383;22;20014;-76
2023/02/28 05:52:29;;;;;;;0.00;0.00;;;;;;;-0.92;98.55;102079.06;6281895;22;20030;-76
2023/02/28 05:54:55;;;;;;;0.00;0.00;;;;;;;-0.96;98.08;102069.63;6285104;22;20030;-76
2023/02/28 05:57:20;;;;;;;0.00;0.00;;;;;;;-1.02;98.16;102064.84;6256028;22;20022;-76
2023/02/28 05:59:45;;;;;;;0.00;0.00;;;;;;;-0.99;98.08;102075.28;6258406;22;20007;-75
2023/02/28 06:02:13;;;;;;;0.00;0.00;;;;;;;-1.05;98.22;102067.84;6255712;22;20414;-77
2023/02/28 06:04:40;;;;;;;0.00;0.00;;;;;;;-1.10;98.38;102064.75;6276845;22;19999;-77
2023/02/28 06:07:06;;;;;;;0.00;0.00;;;;;;;-1.08;98.83;102057.38;6255703;22;20007;-76
2023/02/28 06:09:32;;;;;;;0.00;0.00;;;;;;;-1.12;98.81;102058.69;6279788;22;20010;-76
2023/02/28 06:11:59;;;;;;;0.10;0.10;;;;;;;-1.12;97.82;102056.84;6261057;22;20670;-76
2023/02/28 06:14:27;;;;;;;0.00;0.00;;;;;;;-1.13;98.53;102067.72;6280894;22;19996;-76
2023/02/28 06:16:52;;;;;;;0.10;0.10;;;;;;;-1.15;99.52;102064.38;6257870;22;19990;-76
2023/02/28 06:19:18;;;;;;;0.00;0.00;;;;;;;-1.11;99.22;102068.41;6256649;22;20007;-77
2023/02/28 06:21:43;;;;;;;0.00;0.00;;;;;;;-1.08;98.51;102065.44;6252523;22;20018;-77
2023/02/28 06:24:09;;;;;;;0.00;0.00;;;;;;;-1.07;98.82;102064.44;6311241;22;20045;-76
2023/02/28 06:26:35;;;;;;;0.10;0.10;;;;;;;-1.03;98.31;102067.69;6280973;22;20007;-75
2023/02/28 06:29:01;;;;;;;0.00;0.00;;;;;;;-1.03;99.05;102068.53;6257103;22;20398;-74
2023/02/28 06:31:28;;;;;;;0.00;0.00;;;;;;;-1.03;98.34;102063.16;6254327;22;20089;-75
2023/02/28 06:33:54;;;;;;;0.10;0.10;;;;;;;-0.99;99.20;102066.38;6257085;22;20064;-75
2023/02/28 06:36:20;;;;;;;0.10;0.10;;;;;;;-0.91;99.38;102067.31;6284170;22;19999;-73
2023/02/28 06:38:48;;;;;;;0.00;0.00;;;;;;;-0.95;99.40;102059.72;6307687;22;20049;-75
2023/02/28 06:41:14;;;;;;;0.00;0.00;;;;;;;-1.00;98.61;102057.47;6309392;22;20077;-75
2023/02/28 06:43:42;;;;;;;0.10;0.10;;;;;;;-0.97;98.49;102078.66;6282939;22;20007;-76
2023/02/28 06:46:10;;;;;;;0.00;0.00;;;;;;;-0.93;98.69;102089.97;6284954;22;19999;-76
2023/02/28 06:48:36;;;;;;;0.00;0.00;;;;;;;-0.94;99.42;102088.28;6285186;22;20011;-77
2023/02/28 06:51:07;;;;;;;0.00;0.00;;;;;;;-0.97;99.28;102078.66;6283982;22;20007;-76
2023/02/28 06:53:33;;;;;;;0.10;0.10;;;;;;;-0.95;99.81;102087.44;6286366;22;20027;-75
2023/02/28 06:55:59;;;;;;;0.00;0.00;;;;;;;-0.98;99.05;102081.50;6283637;22;20319;-75
2023/02/28 06:58:24;;;;;;;0.00;0.00;;;;;;;-0.96;98.74;102091.09;6286961;22;20007;-76
2023/02/28 07:00:52;;;;;;;0.00;0.00;;;;;;;-0.96;99.77;102091.09;6308591;22;20007;-74
2023/02/28 07:03:18;;;;;;;0.00;0.00;;;;;;;-0.98;99.22;102085.06;6233799;22;20433;-77
2023/02/28 07:05:46;;;;;;;0.00;0.00;;;;;;;-0.95;100.00;102078.50;6285470;22;19995;-78
2023/02/28 07:08:12;;;;;;;0.10;0.10;;;;;;;-0.97;99.89;102086.72;6286115;22;20010;-79
2023/02/28 07:10:41;;;;;;;0.00;0.00;;;;;;;-1.04;99.91;102091.00;6237154;22;20011;-80
2023/02/28 07:13:08;;;;;;;0.00;0.00;;;;;;;-0.99;100.00;102102.16;6286149;22;20011;-80
2023/02/28 07:15:34;;;;;;;0.10;0.10;;;;;;;-1.01;100.00;102098.75;6291334;22;20014;-80
2023/02/28 07:18:00;;;;;;;0.10;0.10;;;;;;;-1.03;99.61;102089.19;6287673;22;19999;-81
2023/02/28 07:20:25;;;;;;;0.10;0.10;;;;;;;-1.06;99.83;102090.31;6264858;22;20089;-81
2023/02/28 07:23:11;;;;;;;0.10;0.10;;;;;;;-0.94;99.31;102107.91;6296022;22;20010;-80
2023/02/28 07:25:37;;;;;;;0.00;0.00;;;;;;;-0.90;99.94;102103.94;6278675;22;20071;-79
2023/02/28 07:28:35;;;;;;;0.00;0.00;;;;;;;-0.74;99.88;102113.19;6239124;22;20011;-79
2023/02/28 07:31:13;;;;;;;0.00;0.00;;;;;;;-0.59;100.00;102117.06;6278796;22;19999;-81
2023/02/28 07:33:57;;;;;;;0.00;0.00;;;;;;;-0.35;100.00;102110.28;6292736;22;20007;-78
2023/02/28 07:36:23;;;;;;;0.00;0.00;;;;;;;-0.36;100.00;102092.44;6288692;22;20015;-78
2023/02/28 07:38:49;;;;;;;0.00;0.00;;;;;;;-0.26;99.68;102113.88;6284560;22;20048;-80
2023/02/28 07:41:21;;;;;;;0.00;0.00;;;;;;;-0.21;99.31;102117.78;6266936;22;20006;-80
2023/02/28 07:43:47;;;;;;;0.00;0.00;;;;;;;0.06;99.02;102126.78;6314802;22;20333;-79
2023/02/28 07:46:17;;;;;;;0.00;0.00;;;;;;;0.49;99.79;102100.03;6286904;22;19979;-79
2023/02/28 07:48:46;;;;;;;0.00;0.00;;;;;;;1.58;98.72;102109.28;6287314;22;20014;-78
2023/02/28 07:51:12;;;;;;;0.00;0.00;;;;;;;3.11;93.39;102116.72;6260569;22;20011;-77
2023/02/28 07:53:56;;;;;;;0.10;0.10;;;;;;;4.96;83.99;102116.66;6262596;22;20014;-75
2023/02/28 07:56:22;;;;;;;0.00;0.00;;;;;;;6.40;76.99;102107.81;6284707;22;20007;-76
2023/02/28 07:58:47;;;;;;;0.00;0.00;;;;;;;7.78;71.37;102126.13;6310513;22;20048;-77
2023/02/28 08:01:14;;;;;;;0.00;0.00;;;;;;;9.01;66.36;102115.84;6280623;22;20015;-76
2023/02/28 08:03:40;;;;;;;0.00;0.00;;;;;;;10.14;62.18;102117.16;6283801;22;20106;-75
2023/02/28 08:06:08;;;;;;;0.00;0.00;;;;;;;11.12;58.68;102128.50;6303300;22;20537;-76
2023/02/28 08:08:34;;;;;;;0.00;0.00;;;;;;;11.86;56.41;102140.19;6311869;22;19995;-75
2023/02/28 08:11:03;;;;;;;0.00;0.00;;;;;;;11.27;56.82;102134.44;6282549;22;20018;-76
2023/02/28 08:13:29;;;;;;;0.08;0.08;;;;;;;11.31;57.90;102138.38;6310402;22;19995;-77
2023/02/28 08:16:05;;;;;;;0.00;0.00;;;;;;;11.97;56.25;102130.38;6312037;22;19999;-77
2023/02/28 08:18:33;;;;;;;0.00;0.00;;;;;;;12.87;54.04;102133.09;6283811;22;20003;-75
2023/02/28 08:20:59;;;;;;;0.00;0.00;;;;;;;13.73;52.18;102147.03;6284724;22;20027;-78
2023/02/28 08:23:25;;;;;;;0.00;0.00;;;;;;;14.75;49.59;102144.41;6257763;22;20007;-76
2023/02/28 08:25:55;;;;;;;0.00;0.00;;;;;;;15.52;47.12;102137.16;6312744;22;20003;-75
2023/02/28 08:28:21;;;;;;;0.00;0.00;;;;;;;16.32;46.00;102149.56;6306572;22;20004;-75
2023/02/28 08:30:46;;;;;;;0.00;0.00;;;;;;;17.09;44.49;102153.72;6257085;22;20403;-76
2023/02/28 08:33:11;;;;;;;0.00;0.00;;;;;;;17.72;43.03;102146.53;6255354;22;20026;-74
2023/02/28 08:35:37;;;;;;;0.00;0.00;;;;;;;18.21;41.93;102154.41;6282680;22;20034;-75
2023/02/28 08:38:03;;;;;;;0.00;0.00;;;;;;;18.47;41.32;102165.47;6258127;22;20022;-76
2023/02/28 08:40:28;;;;;;;0.10;0.10;;;;;;;19.05;39.92;102161.56;6255882;22;20003;-75
2023/02/28 08:43:14;;;;;;;0.00;0.00;;;;;;;19.63;38.58;102149.97;6281017;22;20007;-76
2023/02/28 08:45:59;;;;;;;;;;;;;;;;;;;;;
2023/02/28 08:49:01;;;;;;;;;;;;;;;;;;;;;
2023/02/28 08:57:26;;;;;;;0.00;0.00;;;;;;;22.70;32.79;102155.09;6274045;22;20011;-76
2023/02/28 09:00:19;;;;;;;0.00;0.00;;;;;;;23.29;32.14;102162.91;6312222;22;20003;-74
2023/02/28 09:02:50;;;;;;;0.00;0.00;;;;;;;23.25;30.29;102136.78;6272841;22;20637;-75
2023/02/28 09:05:24;;;;;;;0.00;0.00;;;;;;;23.76;29.62;102146.84;6281859;22;20026;-76
2023/02/28 09:07:50;;;;;;;;;;;;;;;24.04;28.94;102169.13;6281172;22;20638;-76
2023/02/28 09:10:27;;;;;;;0.00;0.00;;;;;;;22.48;30.15;102151.00;6311764;22;19903;-74
2023/02/28 09:12:52;;;;;;;0.00;0.00;;;;;;;19.57;33.98;102145.56;6256715;22;20027;-75
2023/02/28 09:15:18;;;;;;;0.00;0.00;;;;;;;17.50;37.41;102150.31;6283476;22;20008;-75
2023/02/28 09:17:43;;;;;;;0.00;0.00;;;;;;;16.46;39.75;102136.19;6278258;22;19999;-78
2023/02/28 09:20:12;;;;;;;0.00;0.00;;;;;;;16.40;39.25;102138.06;6253425;22;20094;-74
2023/02/28 09:22:40;;;;;;;0.00;0.00;;;;;;;16.43;39.50;102137.53;6282594;22;20089;-74
2023/02/28 09:25:08;;;;;;;0.00;0.00;;;;;;;16.51;39.79;102127.91;6278426;22;20014;-74
2023/02/28 09:27:33;;;;;;;0.00;0.00;;;;;;;16.25;39.47;102146.19;6283539;22;20008;-75
2023/02/28 09:29:59;;;;;;;0.00;0.00;;;;;;;15.84;40.62;102130.94;6277818;22;20469;-74
2023/02/28 09:32:24;;;;;;;0.00;0.00;;;;;;;15.51;40.60;102127.22;6257967;22;20483;-74
2023/02/28 09:34:50;;;;;;;0.00;0.00;;;;;;;14.60;41.70;102138.63;6307222;22;19999;-74
2023/02/28 09:37:15;;;;;;;0.00;0.00;;;;;;;14.05;42.82;102109.94;6282125;22;20047;-75
2023/02/28 09:39:40;;;;;;;0.00;0.00;;;;;;;13.85;43.12;102129.66;6309560;22;20098;-76
2023/02/28 09:42:21;;;;;;;0.00;0.00;;;;;;;13.19;43.99;102140.94;6279141;22;20030;-75
2023/02/28 09:44:58;;;;;;;0.00;0.00;;;;;;;12.36;45.44;102128.06;6309699;22;19999;-75
2023/02/28 09:47:58;;;;;;;0.00;0.00;;;;;;;11.58;47.58;102121.63;6279924;22;19999;-75
2023/02/28 09:50:26;;;;;;;0.00;0.00;;;;;;;10.98;48.53;102097.69;6275157;22;20011;-75
2023/02/28 09:53:04;;;;;;;0.00;0.00;;;;;;;10.62;50.22;102123.97;6285818;22;20081;-74
2023/02/28 09:55:52;;;;;;;0.00;0.00;;;;;;;9.91;51.70;102134.97;6319749;22;20003;-75
2023/02/28 09:58:46;;;;;;;0.00;0.00;;;;;;;9.56;53.47;102138.13;6324044;22;20129;-74
2023/02/28 10:01:42;;;;;;;0.00;0.00;;;;;;;9.47;54.19;102125.75;6308503;22;19999;-75
2023/02/28 10:04:57;;;;;;;0.00;0.00;;;;;;;9.47;54.55;102150.34;6306666;22;20022;-74
2023/02/28 10:08:04;;;;;;;0.00;0.00;;;;;;;9.28;55.32;102145.81;6254356;22;20007;-76
2023/02/28 10:10:49;;;;;;;0.00;0.00;;;;;;;8.94;56.50;102128.69;6307598;22;20003;-76
2023/02/28 10:14:17;;;;;;;0.00;0.00;;;;;;;8.80;56.84;102144.22;6278766;22;20002;-76
2023/02/28 10:16:59;;;;;;;0.10;0.10;;;;;;;8.69;57.67;102132.09;6124400;23;20009;-75
2023/02/28 10:19:24;;;;;;;0.00;0.00;;;;;;;8.95;57.71;102146.72;6154719;23;20001;-75
2023/02/28 10:22:11;;;;;;;0.00;0.00;;;;;;;8.89;57.73;102138.34;6246628;22;20003;-76
2023/02/28 10:24:51;;;;;;;0.10;0.10;;;;;;;8.78;58.91;102136.25;6306766;22;20003;-75
2023/02/28 10:27:29;;;;;;;0.00;0.00;;;;;;;8.82;58.36;102137.53;6283599;22;20007;-77
2023/02/28 10:29:58;;;;;;;0.00;0.00;;;;;;;9.00;58.31;102122.38;6255099;22;19991;-76
2023/02/28 10:32:28;;;;;;;0.00;0.00;;;;;;;9.29;57.67;102131.06;6310033;22;20018;-74
2023/02/28 10:34:59;;;;;;;0.00;0.00;;;;;;;9.25;57.18;102120.59;6280998;22;20003;-75
2023/02/28 10:37:28;;;;;;;0.00;0.00;;;;;;;9.46;56.91;102132.28;6283058;22;19999;-75
2023/02/28 10:40:01;;;;;;;0.00;0.00;;;;;;;9.26;56.58;102108.63;6280106;22;20033;-76
2023/02/28 10:42:38;;;;;;;0.00;0.00;;;;;;;9.30;57.03;102128.16;6282207;22;20045;-77
2023/02/28 10:45:11;;;;;;;0.00;0.00;;;;;;;9.48;56.81;102132.91;6280030;22;20072;-75
2023/02/28 10:48:04;;;;;;;0.00;0.00;;;;;;;9.64;55.85;102111.59;6308072;22;20008;-74
2023/02/28 10:50:50;;;;;;;0.00;0.00;;;;;;;10.00;55.40;102104.66;6282274;22;19987;-76
2023/02/28 10:53:24;;;;;;;0.00;0.00;;;;;;;10.48;54.20;102115.88;6308858;22;19999;-75
2023/02/28 10:56:10;;;;;;;0.00;0.00;;;;;;;10.44;53.59;102111.06;6306649;22;20430;-74
2023/02/28 10:58:49;;;;;;;0.00;0.00;;;;;;;10.33;54.21;102104.41;6282937;22;20000;-75
2023/02/28 11:01:45;;;;;;;0.00;0.00;;;;;;;10.26;54.49;102117.28;6305894;22;20362;-74
2023/02/28 11:04:35;;;;;;;0.00;0.00;;;;;;;9.96;54.11;102096.91;6305452;22;20070;-74
2023/02/28 11:07:21;;;;;;;0.00;0.00;;;;;;;9.92;54.85;102086.63;6284210;22;20010;-75
2023/02/28 11:09:53;;;;;;;0.00;0.00;;;;;;;10.07;55.21;102095.34;6281756;22;19987;-76
2023/02/28 11:12:36;;;;;;;0.00;0.00;;;;;;;9.98;54.59;102096.69;6283408;22;19984;-75
2023/02/28 11:15:06;;;;;;;0.00;0.00;;;;;;;9.74;55.50;102093.69;6283554;22;20007;-75
2023/02/28 11:17:32;;;;;;;0.00;0.00;;;;;;;9.52;55.76;102106.84;6310924;22;20056;-75
2023/02/28 11:20:03;;;;;;;0.00;0.00;;;;;;;9.22;56.58;102085.53;6308304;22;19983;-75
2023/02/28 11:22:35;;;;;;;0.00;0.00;;;;;;;9.40;56.81;102094.91;6283958;22;20003;-76
2023/02/28 11:25:24;;;;;;;0.00;0.00;;;;;;;9.44;56.33;102080.59;6281305;22;20082;-75
2023/02/28 11:28:06;;;;;;;0.00;0.00;;;;;;;9.57;56.66;102096.09;6309662;22;19999;-74
2023/02/28 11:30:41;;;;;;;0.00;0.00;;;;;;;9.79;56.62;102093.84;6284526;22;20030;-74
2023/02/28 11:33:31;;;;;;;0.00;0.00;;;;;;;10.12;56.36;102100.16;6279843;22;20037;-74
2023/02/28 11:36:24;;;;;;;0.00;0.00;;;;;;;10.08;55.47;102109.88;6310932;22;20029;-75
2023/02/28 11:38:50;;;;;;;0.00;0.00;;;;;;;9.93;55.43;102093.78;6310775;22;20030;-74
2023/02/28 11:41:46;;;;;;;0.00;0.00;;;;;;;9.71;55.81;102085.09;6285382;22;20015;-75
2023/02/28 11:44:18;;;;;;;0.00;0.00;;;;;;;9.61;56.30;102097.34;6281939;22;20022;-75
2023/02/28 11:46:55;;;;;;;0.00;0.00;;;;;;;9.44;57.52;102090.69;6279200;22;20106;-74
2023/02/28 11:49:30;;;;;;;0.00;0.00;;;;;;;9.32;57.20;102097.91;6312307;22;20007;-74
2023/02/28 11:52:08;;;;;;;0.00;0.00;;;;;;;9.14;57.77;102091.25;6285523;22;20007;-74
2023/02/28 11:54:55;;;;;;;0.00;0.00;;;;;;;9.02;58.00;102091.09;6309014;22;20000;-74
2023/02/28 11:57:55;;;;;;;0.00;0.00;;;;;;;8.84;58.71;102090.94;6283611;22;20034;-74
2023/02/28 12:00:35;;;;;;;0.00;0.00;;;;;;;8.83;59.16;102090.06;6283028;22;20120;-75
2023/02/28 12:03:20;;;;;;;0.00;0.00;;;;;;;8.86;59.35;102078.75;6304745;22;20060;-74